Terminal Aerodrome Forecast
Issued by NWS

Home | Current Version | Previous Version | Text Only | Print | Product List | Glossary On
Versions: 1 2 3 4 5 6 7 8 9 10 11 12 13 14 15 16
000
FTUS43 KPAH 201700
TAFCGI
TAF
KCGI 201733Z 2018/2118 23008G15KT P6SM SCT035
     FM202100 21004KT P6SM SKC
     FM210500 23006KT P6SM SCT040 BKN120
     FM210700 26008KT P6SM VCSH BKN040 OVC090
     FM211200 29008KT P6SM FEW015 SCT110
     FM211500 34007KT P6SM SKC=

USA.gov is the U.S. government's official web portal to all federal, state and local government web resources and services.